Time;durP1;ratioP1;P1;durP2;ratioP2;P2;SDS_P1;SDS_P2;PMS_P1;PMS_P2;Temp;Humidity;BMP_temperature;BMP_pressure;BME280_temperature;BME280_humidity;BME280_pressure;Samples;Min_cycle;Max_cycle;Signal;HPM_P1;HPM_P2
2021/09/21 00:01:34;;;;;;;28.95;7.45;;;;;;;15.82;70.98;102433.53;4953213;28;20059;-80
2021/09/21 00:04:01;;;;;;;20.30;7.57;;;;;;;15.79;71.24;102435.03;4953394;29;20122;-79
2021/09/21 00:06:28;;;;;;;20.67;9.60;;;;;;;15.72;71.53;102433.94;4953636;28;20043;-80
2021/09/21 00:08:55;;;;;;;21.42;9.02;;;;;;;15.68;71.59;102432.97;4952207;29;20053;-80
2021/09/21 00:11:22;;;;;;;20.10;7.57;;;;;;;15.63;71.71;102433.97;4953623;28;20047;-80
2021/09/21 00:13:48;;;;;;;25.38;7.35;;;;;;;15.58;72.02;102417.44;4953463;28;20039;-80
2021/09/21 00:16:15;;;;;;;25.90;7.53;;;;;;;15.59;72.18;102423.84;4953560;28;20040;-80
2021/09/21 00:18:42;;;;;;;22.60;8.18;;;;;;;15.52;72.35;102426.31;4952936;28;20047;-80
2021/09/21 00:21:09;;;;;;;23.67;6.53;;;;;;;15.52;72.36;102423.53;4952958;28;20043;-80
2021/09/21 00:23:36;;;;;;;21.55;6.43;;;;;;;15.47;72.32;102424.56;4953226;29;20054;-80
2021/09/21 00:26:02;;;;;;;22.92;5.75;;;;;;;15.42;72.67;102430.31;4941060;28;20403;-80
2021/09/21 00:28:29;;;;;;;15.23;5.15;;;;;;;15.41;72.80;102433.44;4950727;28;20043;-80
2021/09/21 00:31:03;;;;;;;20.20;5.97;;;;;;;15.39;72.95;102441.31;4941404;29;20039;-80
2021/09/21 00:33:36;;;;;;;14.38;5.95;;;;;;;15.41;73.07;102439.03;4953135;28;20562;-80
2021/09/21 00:36:02;;;;;;;37.58;5.97;;;;;;;15.40;72.97;102442.97;4952191;29;20395;-79
2021/09/21 00:38:29;;;;;;;18.95;4.40;;;;;;;15.33;73.25;102448.25;4951627;29;20155;-79
2021/09/21 00:40:56;;;;;;;15.75;5.13;;;;;;;15.35;73.17;102443.97;4953129;28;20134;-80
2021/09/21 00:43:23;;;;;;;16.98;4.82;;;;;;;15.33;73.28;102445.47;4952434;29;20465;-80
2021/09/21 00:45:52;;;;;;;17.63;5.20;;;;;;;15.32;73.12;102441.03;4936246;29;20063;-80
2021/09/21 00:48:21;;;;;;;20.15;4.63;;;;;;;15.24;73.80;102440.75;4964559;28;20069;-79
2021/09/21 00:50:49;;;;;;;18.77;4.75;;;;;;;15.21;74.16;102444.22;4953296;28;20471;-80
2021/09/21 00:53:17;;;;;;;14.68;4.15;;;;;;;15.21;73.91;102433.03;4952424;28;20047;-80
2021/09/21 00:55:44;;;;;;;16.23;4.35;;;;;;;15.18;74.22;102442.09;4951623;29;20045;-80
2021/09/21 00:58:12;;;;;;;14.98;4.00;;;;;;;15.11;74.61;102447.38;4952006;28;20055;-80
2021/09/21 01:00:38;;;;;;;14.75;4.30;;;;;;;15.13;74.55;102447.84;4952855;28;20154;-79
2021/09/21 01:03:05;;;;;;;26.38;7.07;;;;;;;15.10;74.53;102461.63;4952316;28;20047;-80
2021/09/21 01:05:32;;;;;;;14.48;5.15;;;;;;;15.09;74.61;102455.25;4967658;28;20084;-80
2021/09/21 01:07:59;;;;;;;23.23;4.72;;;;;;;15.08;74.71;102452.78;4952699;28;20051;-79
2021/09/21 01:10:29;;;;;;;17.58;4.57;;;;;;;15.06;74.83;102464.28;4954618;28;20113;-80
2021/09/21 01:12:56;;;;;;;13.50;4.30;;;;;;;15.01;75.16;102461.66;4957347;28;20077;-79
2021/09/21 01:15:23;;;;;;;18.95;5.45;;;;;;;14.97;75.05;102449.56;4951818;28;20122;-80
2021/09/21 01:17:51;;;;;;;17.52;4.32;;;;;;;14.93;75.39;102453.34;4952883;28;20047;-80
2021/09/21 01:20:18;;;;;;;18.58;4.53;;;;;;;14.90;75.46;102452.06;4951446;29;20055;-80
2021/09/21 01:22:45;;;;;;;14.23;5.00;;;;;;;14.86;75.77;102445.50;4952462;28;20126;-80
2021/09/21 01:25:12;;;;;;;12.27;4.80;;;;;;;14.86;75.59;102442.69;4943745;29;20138;-80
2021/09/21 01:27:42;;;;;;;18.05;4.25;;;;;;;14.89;75.65;102433.66;4952279;28;20500;-80
2021/09/21 01:30:12;;;;;;;17.70;4.20;;;;;;;14.83;75.94;102435.00;4934558;29;20051;-80
2021/09/21 01:32:39;;;;;;;18.75;4.85;;;;;;;14.79;75.98;102431.25;4947567;29;20062;-80
2021/09/21 01:35:06;;;;;;;15.25;3.88;;;;;;;14.73;76.35;102428.97;4952586;28;20698;-80
2021/09/21 01:37:33;;;;;;;8.77;3.60;;;;;;;14.71;76.26;102437.66;4952096;28;20452;-80
2021/09/21 01:40:00;;;;;;;16.77;4.10;;;;;;;14.72;76.32;102433.72;4952496;28;20086;-80
2021/09/21 01:42:27;;;;;;;16.00;4.35;;;;;;;14.74;76.66;102441.75;4951776;28;20138;-80
2021/09/21 01:44:54;;;;;;;13.50;4.28;;;;;;;14.73;76.48;102432.56;4951869;28;20047;-80
2021/09/21 01:47:21;;;;;;;9.20;3.20;;;;;;;14.75;76.75;102433.06;4951648;28;20047;-80
2021/09/21 01:52:28;;;;;;;13.50;4.43;;;;;;;14.75;76.78;102435.00;4952570;29;20510;-80
2021/09/21 01:55:12;;;;;;;11.65;3.90;;;;;;;14.78;77.22;102429.59;4931123;29;20043;-80
2021/09/21 02:00:24;;;;;;;17.63;4.30;;;;;;;14.89;76.77;102439.25;4950439;29;20058;-80
2021/09/21 02:02:51;;;;;;;13.18;3.50;;;;;;;14.92;77.06;102429.41;4950469;29;20156;-80
2021/09/21 02:05:18;;;;;;;14.15;3.50;;;;;;;14.88;77.46;102428.44;4950545;29;20071;-80
2021/09/21 02:07:45;;;;;;;10.50;4.38;;;;;;;14.86;77.64;102433.50;4935061;29;20130;-79
2021/09/21 02:10:12;;;;;;;14.65;3.40;;;;;;;14.87;77.56;102427.63;4938809;29;20043;-80
2021/09/21 02:12:38;;;;;;;18.63;4.68;;;;;;;14.89;77.34;102433.66;4951669;29;20039;-80
2021/09/21 02:15:06;;;;;;;12.88;4.47;;;;;;;14.84;77.57;102424.66;4932650;29;20066;-80
2021/09/21 02:17:33;;;;;;;17.88;3.90;;;;;;;14.84;77.48;102425.50;4951551;29;20487;-80
2021/09/21 02:20:00;;;;;;;17.38;4.38;;;;;;;14.78;77.64;102421.25;4952176;29;20053;-80
2021/09/21 02:22:26;;;;;;;16.25;4.13;;;;;;;14.82;77.39;102422.22;4944042;29;20533;-80
2021/09/21 02:24:55;;;;;;;12.52;3.25;;;;;;;14.81;77.58;102430.91;4950364;29;20073;-80
2021/09/21 02:27:24;;;;;;;17.33;5.40;;;;;;;14.82;77.42;102425.00;4951025;29;20047;-80
2021/09/21 02:29:51;;;;;;;12.25;3.60;;;;;;;14.79;77.63;102425.66;4950374;29;20126;-80
2021/09/21 02:32:18;;;;;;;21.60;5.15;;;;;;;14.75;77.70;102416.31;4950251;29;20047;-80
2021/09/21 02:34:45;;;;;;;12.82;3.08;;;;;;;14.78;77.40;102418.44;4949564;29;20043;-80
2021/09/21 02:37:13;;;;;;;18.95;4.18;;;;;;;14.75;77.33;102421.91;4944447;29;20055;-80
2021/09/21 02:39:40;;;;;;;13.43;4.07;;;;;;;14.74;77.29;102431.44;4938948;29;20477;-80
2021/09/21 02:42:07;;;;;;;15.13;4.00;;;;;;;14.71;77.27;102437.66;4950673;28;20410;-80
2021/09/21 02:44:34;;;;;;;16.00;4.53;;;;;;;14.67;77.28;102436.69;4954569;29;20502;-80
2021/09/21 02:47:02;;;;;;;12.50;3.85;;;;;;;14.64;77.14;102437.34;4954887;28;20039;-80
2021/09/21 02:49:30;;;;;;;14.55;4.32;;;;;;;14.59;77.52;102443.91;4972503;28;20055;-80
2021/09/21 02:51:57;;;;;;;12.43;4.25;;;;;;;14.56;77.52;102449.34;4956579;28;20105;-79
2021/09/21 02:54:24;;;;;;;15.07;3.67;;;;;;;14.52;77.55;102451.16;4969432;28;20058;-80
2021/09/21 02:56:51;;;;;;;12.52;3.75;;;;;;;14.47;77.72;102442.97;4956807;28;20054;-80
2021/09/21 02:59:18;;;;;;;17.95;3.85;;;;;;;14.43;77.88;102441.97;4973930;28;20073;-80
2021/09/21 03:01:44;;;;;;;16.80;5.38;;;;;;;14.32;78.34;102444.28;4973128;28;20054;-80
2021/09/21 03:04:33;;;;;;;13.23;3.08;;;;;;;14.27;78.48;102444.41;4973304;28;20122;-80
2021/09/21 03:07:06;;;;;;;13.43;5.57;;;;;;;14.30;78.64;102431.78;4973490;28;20047;-79
2021/09/21 03:10:07;;;;;;;11.85;3.72;;;;;;;14.30;78.50;102445.72;4961691;28;20134;-80
2021/09/21 03:12:40;;;;;;;12.40;3.85;;;;;;;14.30;78.18;102442.94;4972460;28;20066;-79
2021/09/21 03:17:52;;;;;;;15.00;3.90;;;;;;;14.18;78.89;102443.63;4973923;28;20098;-80
2021/09/21 03:20:19;;;;;;;9.35;3.72;;;;;;;14.22;79.01;102446.53;4973231;28;20091;-79
2021/09/21 03:22:46;;;;;;;14.18;5.22;;;;;;;14.22;78.98;102446.53;4956794;28;20046;-79
2021/09/21 03:25:13;;;;;;;15.15;5.72;;;;;;;14.18;78.80;102449.19;4956210;28;20054;-80
2021/09/21 03:27:39;;;;;;;18.38;5.45;;;;;;;14.12;79.35;102441.31;4974020;28;20487;-80
2021/09/21 03:30:07;;;;;;;12.90;5.05;;;;;;;14.08;79.43;102448.69;4972479;28;20053;-80
2021/09/21 03:32:33;;;;;;;13.35;5.22;;;;;;;14.07;79.57;102449.84;4973634;28;20057;-79
2021/09/21 03:35:02;;;;;;;17.20;4.70;;;;;;;14.04;79.66;102446.56;4973587;28;20039;-79
2021/09/21 03:37:29;;;;;;;16.30;5.55;;;;;;;14.01;79.72;102463.09;4973375;28;20043;-80
2021/09/21 03:39:56;;;;;;;20.98;6.82;;;;;;;13.97;79.74;102456.56;4973103;28;20043;-80
2021/09/21 03:42:23;;;;;;;12.65;5.70;;;;;;;13.98;79.77;102464.56;4973853;28;20544;-80
2021/09/21 03:44:51;;;;;;;22.40;5.70;;;;;;;13.99;79.87;102465.41;4973464;28;20097;-79
2021/09/21 03:47:18;;;;;;;21.08;6.45;;;;;;;14.04;79.68;102463.28;4959208;28;20045;-79
2021/09/21 03:49:44;;;;;;;17.83;5.70;;;;;;;14.10;79.88;102451.97;4971223;28;20058;-80
2021/09/21 03:52:11;;;;;;;22.05;6.45;;;;;;;14.12;79.85;102452.47;4973307;28;20047;-80
2021/09/21 03:54:38;;;;;;;19.33;6.40;;;;;;;14.14;79.99;102456.56;4953879;28;20047;-79
2021/09/21 03:57:05;;;;;;;25.58;9.25;;;;;;;14.17;79.82;102455.06;4954124;29;20053;-80
2021/09/21 03:59:31;;;;;;;24.60;9.13;;;;;;;14.13;80.10;102448.53;4948270;28;20055;-80
2021/09/21 04:01:58;;;;;;;28.60;9.25;;;;;;;14.07;80.32;102444.25;4972984;28;20047;-80
2021/09/21 04:04:25;;;;;;;22.33;7.45;;;;;;;14.04;80.33;102441.00;4972891;28;20050;-80
2021/09/21 04:06:52;;;;;;;30.83;8.00;;;;;;;14.04;80.35;102443.78;4967254;28;20131;-80
2021/09/21 04:09:18;;;;;;;33.05;8.50;;;;;;;14.01;80.81;102444.44;4958597;28;20053;-80
2021/09/21 04:11:45;;;;;;;31.05;8.98;;;;;;;14.03;80.64;102444.91;4972946;28;20467;-79
2021/09/21 04:14:14;;;;;;;21.10;8.40;;;;;;;14.06;80.97;102442.66;4972122;28;20047;-79
2021/09/21 04:16:41;;;;;;;24.27;8.15;;;;;;;14.07;80.94;102435.91;4955027;28;20070;-79
2021/09/21 04:19:09;;;;;;;16.70;7.55;;;;;;;14.06;81.38;102431.50;4963015;28;20039;-80
2021/09/21 04:21:36;;;;;;;23.70;8.63;;;;;;;14.09;81.47;102431.66;4955390;28;20054;-80
2021/09/21 04:24:03;;;;;;;18.35;8.63;;;;;;;14.11;81.40;102422.97;4952009;28;20047;-80
2021/09/21 04:26:29;;;;;;;26.00;9.43;;;;;;;14.13;81.52;102418.72;4967219;28;20047;-80
2021/09/21 04:28:56;;;;;;;22.85;9.35;;;;;;;14.16;81.68;102425.59;4967003;28;20046;-80
2021/09/21 04:31:24;;;;;;;25.70;8.52;;;;;;;14.16;81.89;102411.66;4972712;28;20055;-80
2021/09/21 04:33:53;;;;;;;21.90;7.53;;;;;;;14.11;82.33;102411.84;4961267;28;20062;-80
2021/09/21 04:36:20;;;;;;;20.75;8.38;;;;;;;14.08;82.48;102412.50;4972027;28;20057;-80
2021/09/21 04:38:47;;;;;;;26.58;8.05;;;;;;;14.10;82.49;102415.75;4971713;28;20042;-79
2021/09/21 04:41:15;;;;;;;21.00;8.23;;;;;;;14.11;82.60;102411.84;4972763;28;20046;-79
2021/09/21 04:43:41;;;;;;;24.10;8.90;;;;;;;14.15;82.69;102408.06;4972211;28;20133;-80
2021/09/21 04:46:09;;;;;;;27.63;9.40;;;;;;;14.12;82.96;102407.88;4971648;28;20042;-80
2021/09/21 04:48:36;;;;;;;22.27;8.60;;;;;;;14.12;82.82;102413.47;4957576;28;20070;-80
2021/09/21 04:51:03;;;;;;;22.42;9.70;;;;;;;14.11;83.11;102418.22;4950048;29;20134;-80
2021/09/21 04:53:30;;;;;;;22.25;8.52;;;;;;;14.16;82.79;102420.03;4935588;29;20101;-80
2021/09/21 04:55:58;;;;;;;25.77;8.85;;;;;;;14.14;82.85;102422.34;4935453;29;20440;-80
2021/09/21 04:58:25;;;;;;;21.13;9.48;;;;;;;14.16;83.00;102428.38;4935660;29;20081;-80
2021/09/21 05:00:53;;;;;;;22.65;8.05;;;;;;;14.20;82.92;102435.75;4946291;29;20043;-80
2021/09/21 05:03:20;;;;;;;38.38;11.10;;;;;;;14.26;82.99;102441.97;4951139;29;20098;-80
2021/09/21 05:05:47;;;;;;;17.05;7.93;;;;;;;14.31;82.78;102442.66;4948747;28;20039;-79
2021/09/21 05:08:14;;;;;;;24.52;7.95;;;;;;;14.32;82.79;102443.47;4934926;29;20050;-80
2021/09/21 05:10:40;;;;;;;20.33;8.75;;;;;;;14.35;82.86;102451.19;4949071;29;20051;-80
2021/09/21 05:13:07;;;;;;;19.00;7.47;;;;;;;14.35;83.14;102451.19;4928686;29;20044;-80
2021/09/21 05:15:34;;;;;;;25.90;8.52;;;;;;;14.36;83.04;102455.59;4953334;28;20051;-80
2021/09/21 05:18:00;;;;;;;30.00;8.52;;;;;;;14.39;83.14;102457.72;4969163;28;20047;-80
2021/09/21 05:20:27;;;;;;;19.77;7.13;;;;;;;14.42;83.04;102459.84;4952216;29;20043;-80
2021/09/21 05:22:54;;;;;;;17.30;6.03;;;;;;;14.44;83.28;102461.16;4952093;28;20050;-79
2021/09/21 05:25:21;;;;;;;23.33;6.10;;;;;;;14.46;83.22;102463.59;4952346;29;20048;-80
2021/09/21 05:27:48;;;;;;;20.25;6.85;;;;;;;14.42;83.25;102466.25;4934169;29;20055;-81
2021/09/21 05:30:15;;;;;;;17.25;5.60;;;;;;;14.44;83.43;102477.88;4933000;29;20518;-81
2021/09/21 05:32:42;;;;;;;19.10;5.65;;;;;;;14.48;82.98;102478.06;4945595;29;20074;-81
2021/09/21 05:35:09;;;;;;;19.52;5.80;;;;;;;14.52;83.00;102476.22;4928169;29;20114;-81
2021/09/21 05:37:36;;;;;;;15.25;4.97;;;;;;;14.52;82.88;102476.22;4935290;29;20403;-81
2021/09/21 05:40:05;;;;;;;20.80;7.70;;;;;;;14.52;83.07;102479.03;4935161;29;20078;-81
2021/09/21 05:42:32;;;;;;;15.27;5.63;;;;;;;14.51;82.98;102488.53;4952360;29;20047;-81
2021/09/21 05:44:59;;;;;;;18.48;6.75;;;;;;;14.48;83.03;102494.78;4934900;29;20047;-81
2021/09/21 05:47:27;;;;;;;14.82;5.38;;;;;;;14.47;83.36;102496.75;4954336;28;20047;-80
2021/09/21 05:49:54;;;;;;;15.25;4.82;;;;;;;14.44;83.12;102491.00;4954689;28;20129;-80
2021/09/21 05:52:21;;;;;;;15.30;5.45;;;;;;;14.41;83.17;102486.91;4970344;28;20046;-80
2021/09/21 05:54:48;;;;;;;13.65;4.88;;;;;;;14.37;83.50;102487.91;4963051;28;20043;-81
2021/09/21 05:57:15;;;;;;;13.48;5.93;;;;;;;14.39;83.33;102488.38;4952824;29;20117;-80
2021/09/21 05:59:41;;;;;;;18.77;5.32;;;;;;;14.45;83.11;102487.06;4952376;29;20065;-81
2021/09/21 06:02:08;;;;;;;10.18;4.47;;;;;;;14.48;83.28;102483.63;4952653;28;20074;-81
2021/09/21 06:04:35;;;;;;;14.95;5.72;;;;;;;14.47;83.32;102484.75;4970183;28;20041;-81
2021/09/21 06:07:02;;;;;;;15.20;4.82;;;;;;;14.47;83.24;102481.97;4971654;28;20078;-80
2021/09/21 06:09:29;;;;;;;12.15;5.22;;;;;;;14.45;83.18;102479.53;4952745;28;20043;-80
2021/09/21 06:11:55;;;;;;;15.60;4.90;;;;;;;14.44;83.04;102482.63;4963486;28;20054;-80
2021/09/21 06:14:22;;;;;;;16.30;5.57;;;;;;;14.45;82.93;102485.09;4971762;28;20055;-80
2021/09/21 06:16:49;;;;;;;17.05;5.50;;;;;;;14.46;82.84;102483.13;4972797;28;20047;-80
2021/09/21 06:19:16;;;;;;;16.55;5.35;;;;;;;14.45;82.63;102478.72;4975058;28;20537;-80
2021/09/21 06:21:42;;;;;;;13.70;4.60;;;;;;;14.40;82.77;102487.25;4971444;28;20038;-80
2021/09/21 06:24:09;;;;;;;16.20;5.22;;;;;;;14.38;82.64;102481.16;4956879;28;20046;-80
2021/09/21 06:26:36;;;;;;;14.32;4.22;;;;;;;14.37;82.74;102479.53;4972087;28;20057;-79
2021/09/21 06:29:03;;;;;;;17.15;5.07;;;;;;;14.37;82.78;102482.31;4955235;28;20057;-80
2021/09/21 06:31:30;;;;;;;15.13;4.43;;;;;;;14.39;82.55;102491.16;4960344;28;20560;-81
2021/09/21 06:33:57;;;;;;;10.07;3.80;;;;;;;14.38;82.56;102483.94;4948502;28;20054;-81
2021/09/21 06:36:23;;;;;;;13.40;3.97;;;;;;;14.39;82.36;102499.53;4955996;28;20053;-82
2021/09/21 06:38:50;;;;;;;12.63;3.97;;;;;;;14.42;82.73;102501.66;4972816;28;20038;-80
2021/09/21 06:41:17;;;;;;;27.05;5.80;;;;;;;14.47;82.51;102499.53;4974188;28;20476;-80
2021/09/21 06:43:44;;;;;;;17.55;6.03;;;;;;;14.54;82.48;102499.00;4956141;28;20513;-79
2021/09/21 06:46:11;;;;;;;18.17;4.13;;;;;;;14.61;82.67;102500.16;4964075;28;20491;-81
2021/09/21 06:48:41;;;;;;;18.05;4.30;;;;;;;14.66;82.50;102496.41;4969899;28;20047;-80
2021/09/21 06:51:08;;;;;;;13.18;4.80;;;;;;;14.70;82.37;102500.13;4954824;28;20078;-80
2021/09/21 06:53:35;;;;;;;13.13;3.70;;;;;;;14.72;82.48;102499.81;4953412;29;20509;-79
2021/09/21 06:56:03;;;;;;;14.60;4.28;;;;;;;14.70;81.83;102497.34;4953630;29;20047;-80
2021/09/21 06:58:30;;;;;;;20.38;4.25;;;;;;;14.65;81.82;102497.53;4954818;28;20051;-79
2021/09/21 07:00:56;;;;;;;11.30;3.85;;;;;;;14.64;81.64;102501.44;4954101;28;20050;-81
2021/09/21 07:03:23;;;;;;;11.98;4.20;;;;;;;14.62;81.71;102503.75;4954450;28;20054;-80
2021/09/21 07:05:53;;;;;;;11.02;4.63;;;;;;;14.61;81.85;102518.88;4954456;29;20047;-80
2021/09/21 07:08:20;;;;;;;12.88;4.22;;;;;;;14.57;81.88;102524.28;4953638;28;20047;-80
2021/09/21 07:10:47;;;;;;;14.00;5.43;;;;;;;14.57;81.86;102515.91;4955368;28;20122;-80
2021/09/21 07:13:14;;;;;;;12.70;4.65;;;;;;;14.59;82.10;102512.78;4952476;29;20416;-80
2021/09/21 07:15:41;;;;;;;20.42;5.60;;;;;;;14.61;82.03;102516.88;4953716;28;20050;-80
2021/09/21 07:18:11;;;;;;;12.07;3.78;;;;;;;14.63;81.97;102519.34;4954342;29;20074;-80
2021/09/21 07:20:38;;;;;;;32.72;6.90;;;;;;;14.67;82.08;102523.09;4954439;28;20043;-80
2021/09/21 07:23:05;;;;;;;13.13;4.18;;;;;;;14.71;82.03;102520.47;4954523;28;20052;-80
2021/09/21 07:25:33;;;;;;;15.45;3.83;;;;;;;14.72;81.97;102534.06;4952721;28;20555;-80
2021/09/21 07:28:02;;;;;;;14.50;5.88;;;;;;;14.74;81.73;102531.81;4962574;28;20046;-80
2021/09/21 07:30:30;;;;;;;20.27;6.05;;;;;;;14.73;81.84;102530.16;4951320;28;20039;-80
2021/09/21 07:32:57;;;;;;;13.20;4.68;;;;;;;14.76;81.75;102528.66;4952100;29;20142;-80
2021/09/21 07:35:24;;;;;;;18.35;4.55;;;;;;;14.77;81.88;102531.16;4938995;29;20055;-80
2021/09/21 07:37:51;;;;;;;15.07;5.45;;;;;;;14.82;81.80;102527.34;4953184;29;20047;-80
2021/09/21 07:40:21;;;;;;;17.55;4.63;;;;;;;14.88;81.82;102531.63;4953588;28;20047;-80
2021/09/21 07:42:50;;;;;;;12.75;4.45;;;;;;;14.95;81.61;102532.75;4952335;29;20047;-80
2021/09/21 07:45:17;;;;;;;11.70;4.93;;;;;;;15.02;81.61;102521.91;4953272;28;20051;-80
2021/09/21 07:47:48;;;;;;;15.43;4.57;;;;;;;15.04;81.58;102525.16;4952794;28;20467;-80
2021/09/21 07:50:15;;;;;;;14.65;4.32;;;;;;;15.09;81.58;102529.78;4937038;29;20043;-80
2021/09/21 07:52:42;;;;;;;13.15;4.60;;;;;;;15.17;81.47;102535.28;4942286;29;20043;-80
2021/09/21 07:55:09;;;;;;;8.35;4.32;;;;;;;15.25;81.15;102542.81;4938140;29;20054;-80
2021/09/21 07:57:38;;;;;;;14.30;4.53;;;;;;;15.31;81.17;102537.06;4963548;28;20525;-80
2021/09/21 08:00:07;;;;;;;10.23;3.40;;;;;;;15.38;80.80;102534.59;4936064;29;20440;-80
2021/09/21 08:02:34;;;;;;;11.70;4.28;;;;;;;15.40;81.02;102544.25;4949107;29;20036;-80
2021/09/21 08:05:01;;;;;;;12.93;4.65;;;;;;;15.49;81.02;102547.06;4950007;29;20043;-80
2021/09/21 08:07:29;;;;;;;15.32;4.53;;;;;;;15.55;80.94;102551.28;4950604;29;20057;-80
2021/09/21 08:09:58;;;;;;;14.05;3.72;;;;;;;15.62;80.74;102549.59;4953586;29;20055;-80
2021/09/21 08:12:29;;;;;;;16.70;4.35;;;;;;;15.73;80.43;102550.03;4949377;29;20087;-80
2021/09/21 08:14:57;;;;;;;15.05;3.65;;;;;;;15.85;80.26;102544.56;4929337;29;20075;-80
2021/09/21 08:17:26;;;;;;;15.15;4.25;;;;;;;15.94;80.32;102547.31;4946130;29;20065;-80
2021/09/21 08:19:54;;;;;;;10.77;3.85;;;;;;;15.97;80.07;102552.19;4939149;29;20499;-80
2021/09/21 08:22:22;;;;;;;11.10;3.55;;;;;;;15.94;79.85;102545.31;4947595;29;20039;-80
2021/09/21 08:24:49;;;;;;;8.38;3.13;;;;;;;15.99;79.97;102538.75;4939145;29;20055;-80
2021/09/21 08:27:16;;;;;;;8.45;3.25;;;;;;;16.05;79.97;102543.78;4931346;29;20049;-80
2021/09/21 08:29:43;;;;;;;9.60;3.13;;;;;;;16.11;79.58;102542.44;4951258;29;20510;-80
2021/09/21 08:32:10;;;;;;;9.82;2.30;;;;;;;16.15;79.42;102543.38;4951978;29;20043;-80
2021/09/21 08:34:38;;;;;;;9.95;2.67;;;;;;;16.22;79.12;102542.84;4931334;29;20384;-80
2021/09/21 08:37:05;;;;;;;6.00;3.13;;;;;;;16.27;78.95;102539.84;4945782;29;20071;-80
2021/09/21 08:39:31;;;;;;;8.00;2.60;;;;;;;16.36;79.02;102532.22;4943922;29;20047;-80
2021/09/21 08:41:58;;;;;;;7.43;2.22;;;;;;;16.46;78.71;102537.41;4950947;29;20443;-80
2021/09/21 08:44:25;;;;;;;4.47;2.78;;;;;;;16.57;78.44;102529.44;4933974;29;20047;-79
2021/09/21 08:46:52;;;;;;;7.07;2.97;;;;;;;16.65;78.56;102534.13;4914875;29;20057;-80
2021/09/21 08:49:19;;;;;;;6.97;2.72;;;;;;;16.74;78.38;102530.09;4925845;29;20048;-79
2021/09/21 08:51:46;;;;;;;5.13;2.53;;;;;;;16.84;78.04;102537.22;4946420;29;20047;-80
2021/09/21 08:54:13;;;;;;;8.75;2.75;;;;;;;16.89;77.63;102528.63;4950764;29;20380;-80
2021/09/21 08:56:40;;;;;;;4.70;2.47;;;;;;;16.96;77.50;102534.47;4947873;29;20079;-81
2021/09/21 08:59:12;;;;;;;8.85;2.60;;;;;;;17.00;77.10;102530.63;4951710;29;20047;-80
2021/09/21 09:01:47;;;;;;;11.53;3.40;;;;;;;17.08;76.52;102534.50;4951941;29;20047;-80
2021/09/21 09:04:16;;;;;;;5.68;2.17;;;;;;;17.19;76.70;102532.06;4950627;29;20043;-80
2021/09/21 09:06:44;;;;;;;11.48;2.97;;;;;;;17.23;76.58;102533.84;4937151;29;20099;-80
2021/09/21 09:09:22;;;;;;;2.95;1.27;;;;;;;17.33;75.54;102526.97;4937823;29;20047;-80
2021/09/21 09:11:54;;;;;;;4.00;1.42;;;;;;;17.48;75.48;102538.31;4951576;29;20043;-80
2021/09/21 09:14:21;;;;;;;;;;;;;;;17.62;74.11;102536.03;4950758;28;20074;-80
2021/09/21 09:17:10;;;;;;;3.20;1.40;;;;;;;17.91;73.85;102542.53;4935046;29;19922;-80
2021/09/21 09:19:46;;;;;;;4.97;1.40;;;;;;;18.17;73.90;102540.16;4948944;28;20061;-80
2021/09/21 09:22:17;;;;;;;3.72;1.42;;;;;;;18.35;73.39;102530.31;4940309;29;20058;-80
2021/09/21 09:24:49;;;;;;;4.43;1.00;;;;;;;18.51;72.48;102528.41;4952956;28;20047;-81
2021/09/21 09:27:18;;;;;;;4.80;1.33;;;;;;;18.61;71.98;102533.53;4952201;28;21455;-80
2021/09/21 09:29:53;;;;;;;3.83;1.10;;;;;;;18.85;70.73;102533.41;4952736;28;20148;-80
2021/09/21 09:32:19;;;;;;;3.53;1.30;;;;;;;19.00;70.92;102529.03;4952673;28;20058;-80
2021/09/21 09:34:46;;;;;;;3.25;1.20;;;;;;;19.01;69.86;102530.63;4952519;28;20047;-80
2021/09/21 09:37:13;;;;;;;2.00;0.73;;;;;;;18.94;69.14;102538.06;4952637;29;20051;-80
2021/09/21 09:39:41;;;;;;;1.75;1.05;;;;;;;18.84;68.37;102526.19;4952178;28;20040;-80
2021/09/21 09:42:12;;;;;;;2.70;1.08;;;;;;;18.69;67.93;102524.13;4967191;28;20464;-80
2021/09/21 09:44:40;;;;;;;1.08;0.65;;;;;;;18.65;68.05;102517.63;4952401;28;20070;-80
2021/09/21 09:47:07;;;;;;;2.08;0.98;;;;;;;18.71;67.93;102523.78;4952339;28;20058;-80
2021/09/21 09:49:42;;;;;;;3.88;1.10;;;;;;;18.72;67.58;102526.22;4969945;28;20166;-80
2021/09/21 09:52:15;;;;;;;1.30;1.02;;;;;;;18.84;67.80;102520.56;4974658;28;20494;-80
2021/09/21 09:54:45;;;;;;;3.15;0.90;;;;;;;18.94;67.59;102521.22;4975485;28;20039;-80
2021/09/21 09:57:14;;;;;;;1.42;0.75;;;;;;;19.02;67.43;102521.06;4958096;28;20564;-80
2021/09/21 09:59:42;;;;;;;1.60;0.40;;;;;;;19.15;67.06;102524.59;4950086;29;20097;-80
2021/09/21 10:02:08;;;;;;;1.27;0.45;;;;;;;19.12;66.66;102523.31;4966619;28;20054;-80
2021/09/21 10:04:38;;;;;;;1.73;0.80;;;;;;;19.05;66.23;102525.13;4975159;28;20039;-80
2021/09/21 10:07:06;;;;;;;2.80;0.80;;;;;;;19.06;66.09;102518.34;4975294;28;20078;-80
2021/09/21 10:09:33;;;;;;;2.05;1.00;;;;;;;19.24;66.18;102514.84;4961573;28;20057;-80
2021/09/21 10:12:00;;;;;;;1.83;0.50;;;;;;;19.49;65.99;102521.09;4975242;28;20039;-81
2021/09/21 10:14:27;;;;;;;0.60;0.40;;;;;;;19.53;65.18;102519.22;4974146;28;20078;-80
2021/09/21 10:16:59;;;;;;;1.33;0.57;;;;;;;19.57;64.22;102525.72;4975371;28;20047;-81
2021/09/21 10:19:27;;;;;;;0.63;0.63;;;;;;;19.91;64.17;102513.72;4975207;28;20054;-80
2021/09/21 10:21:56;;;;;;;1.92;0.50;;;;;;;20.02;63.19;102513.97;4973436;28;20043;-80
2021/09/21 10:24:39;;;;;;;0.25;0.25;;;;;;;19.98;61.70;102525.13;4975019;28;20058;-80
2021/09/21 10:27:08;;;;;;;2.15;0.40;;;;;;;20.15;62.18;102514.66;4974964;28;20146;-80
2021/09/21 10:29:36;;;;;;;1.60;0.40;;;;;;;20.48;61.77;102526.25;4969369;28;20074;-79
2021/09/21 10:32:11;;;;;;;1.30;0.22;;;;;;;20.77;59.95;102507.97;4956957;28;20704;-78
2021/09/21 10:34:48;;;;;;;0.47;0.40;;;;;;;20.88;59.79;102511.81;4957530;28;20499;-78
2021/09/21 10:37:20;;;;;;;1.10;0.70;;;;;;;20.82;58.92;102521.72;4974888;28;20043;-78
2021/09/21 10:40:01;;;;;;;1.08;0.30;;;;;;;20.80;58.20;102519.28;4975132;28;20051;-77
2021/09/21 10:42:48;;;;;;;0.50;0.35;;;;;;;20.80;58.63;102526.91;4958527;28;20061;-78
2021/09/21 10:45:25;;;;;;;0.40;0.40;;;;;;;20.97;58.33;102521.63;4958003;28;20055;-78
2021/09/21 10:48:11;;;;;;;0.63;0.43;;;;;;;21.04;57.78;102524.59;4973899;28;20062;-77
2021/09/21 10:50:43;;;;;;;1.20;0.75;;;;;;;20.95;58.08;102509.94;4957363;28;20049;-79
2021/09/21 10:53:09;;;;;;;1.35;0.60;;;;;;;20.80;58.22;102516.47;4955451;28;20054;-78
2021/09/21 10:55:39;;;;;;;1.48;0.38;;;;;;;20.82;57.74;102519.72;4954977;29;20047;-78
2021/09/21 10:58:18;;;;;;;;;;;;;;;20.77;57.73;102522.84;4940153;28;20090;-79
2021/09/21 11:00:46;;;;;;;1.40;0.40;;;;;;;20.62;58.62;102523.75;4956787;28;19945;-79
2021/09/21 11:03:13;;;;;;;1.98;0.43;;;;;;;20.43;58.85;102521.75;4973478;28;20047;-79
2021/09/21 11:05:42;;;;;;;1.33;0.40;;;;;;;20.35;58.73;102508.72;4956916;28;20086;-79
2021/09/21 11:08:12;;;;;;;1.92;0.50;;;;;;;20.24;58.90;102504.84;4957083;28;20085;-78
2021/09/21 11:10:49;;;;;;;3.95;0.60;;;;;;;20.17;59.09;102515.09;4973528;28;20070;-78
2021/09/21 11:13:18;;;;;;;1.15;0.25;;;;;;;20.10;59.08;102510.13;4974094;28;20094;-79
2021/09/21 11:15:46;;;;;;;1.00;0.57;;;;;;;20.01;59.31;102512.34;4973727;28;20047;-77
2021/09/21 11:18:16;;;;;;;1.35;0.28;;;;;;;20.00;59.67;102517.16;4972707;28;20495;-78
2021/09/21 11:20:44;;;;;;;0.47;0.17;;;;;;;19.93;59.86;102516.19;4973898;28;20053;-77
2021/09/21 11:23:12;;;;;;;1.50;0.50;;;;;;;19.90;60.56;102512.09;4973391;28;20035;-77
2021/09/21 11:25:38;;;;;;;1.48;0.22;;;;;;;19.87;60.42;102501.59;4956012;28;20063;-77
2021/09/21 11:28:06;;;;;;;0.55;0.32;;;;;;;19.90;60.68;102508.47;4972542;28;20054;-78
2021/09/21 11:30:33;;;;;;;1.23;0.50;;;;;;;19.87;60.53;102510.00;4973437;28;20142;-78
2021/09/21 11:33:22;;;;;;;1.80;0.30;;;;;;;19.90;59.44;102506.47;4973886;28;20042;-77